Time;durP1;ratioP1;P1;durP2;ratioP2;P2;SDS_P1;SDS_P2;PMS_P1;PMS_P2;Temp;Humidity;BMP_temperature;BMP_pressure;BME280_temperature;BME280_humidity;BME280_pressure;Samples;Min_cycle;Max_cycle;Signal;HPM_P1;HPM_P2
2023/12/30 00:00:50;;;;;;;4.37;3.97;;;;;;;7.64;76.59;96131.31;4992178;28;20659;-71
2023/12/30 00:03:16;;;;;;;4.97;4.20;;;;;;;7.62;76.54;96127.91;4968212;28;20268;-71
2023/12/30 00:05:42;;;;;;;4.03;3.63;;;;;;;7.50;76.61;96139.66;5033391;28;21036;-70
2023/12/30 00:08:07;;;;;;;4.77;3.43;;;;;;;7.58;76.36;96132.41;5022313;28;20188;-70
2023/12/30 00:10:32;;;;;;;5.27;4.20;;;;;;;7.48;77.19;96132.78;4970166;28;20703;-71
2023/12/30 00:12:58;;;;;;;4.30;3.90;;;;;;;7.42;77.36;96142.53;4974914;28;20453;-71
2023/12/30 00:15:24;;;;;;;4.17;3.77;;;;;;;7.58;77.17;96135.00;4986030;28;20208;-71
2023/12/30 00:17:49;;;;;;;6.23;3.50;;;;;;;7.61;76.97;96139.28;5023709;28;20435;-71
2023/12/30 00:20:15;;;;;;;4.17;3.77;;;;;;;7.61;76.91;96126.22;5009926;28;20178;-71
2023/12/30 00:22:40;;;;;;;4.20;3.80;;;;;;;7.79;76.39;96122.91;5002362;28;20262;-71
2023/12/30 00:25:07;;;;;;;4.10;3.27;;;;;;;7.79;76.35;96122.91;4973775;28;20202;-71
2023/12/30 00:27:32;;;;;;;4.50;3.00;;;;;;;7.93;75.64;96126.75;4996646;28;20234;-71
2023/12/30 00:29:57;;;;;;;3.80;3.40;;;;;;;7.75;76.15;96126.56;5009202;28;20440;-72
2023/12/30 00:32:23;;;;;;;3.97;3.67;;;;;;;7.80;76.38;96127.22;5008292;28;20205;-71
2023/12/30 00:34:49;;;;;;;4.57;3.90;;;;;;;7.84;76.72;96123.59;4959347;28;20263;-71
2023/12/30 00:37:18;;;;;;;3.57;3.27;;;;;;;7.68;76.50;96119.84;4963612;28;20310;-70
2023/12/30 00:39:44;;;;;;;5.00;3.10;;;;;;;7.73;76.39;96130.13;5000229;28;20429;-70
2023/12/30 00:42:10;;;;;;;3.97;3.57;;;;;;;7.75;76.77;96133.53;4994726;28;20499;-69
2023/12/30 00:44:35;;;;;;;4.77;3.53;;;;;;;7.73;77.32;96138.81;5011053;28;20234;-71
2023/12/30 00:47:00;;;;;;;3.67;3.30;;;;;;;7.69;76.68;96144.22;4997339;28;20186;-71
2023/12/30 00:49:26;;;;;;;4.10;3.50;;;;;;;7.75;76.69;96144.84;4968805;28;20253;-70
2023/12/30 00:51:51;;;;;;;4.30;3.53;;;;;;;7.64;77.02;96144.38;4997316;28;20178;-71
2023/12/30 00:54:16;;;;;;;3.40;3.10;;;;;;;7.62;77.66;96160.09;5006572;28;20259;-71
2023/12/30 00:56:42;;;;;;;4.57;3.43;;;;;;;7.54;77.56;96156.91;5034431;28;20186;-71
2023/12/30 00:59:07;;;;;;;4.60;3.33;;;;;;;7.49;78.47;96156.22;4978940;28;20240;-71
2023/12/30 01:01:33;;;;;;;3.97;3.33;;;;;;;7.37;78.80;96154.91;4965572;28;20220;-70
2023/12/30 01:03:59;;;;;;;5.00;4.00;;;;;;;7.46;78.23;96156.31;4975099;28;20724;-71
2023/12/30 01:06:24;;;;;;;4.90;4.23;;;;;;;7.45;78.03;96166.84;4979953;28;20548;-70
2023/12/30 01:08:50;;;;;;;9.90;3.57;;;;;;;7.44;78.26;96158.16;4988899;28;20493;-71
2023/12/30 01:11:15;;;;;;;3.77;3.10;;;;;;;7.46;78.27;96153.72;5038480;28;20209;-70
2023/12/30 01:13:40;;;;;;;5.63;3.27;;;;;;;7.53;78.12;96154.34;4977208;28;20236;-71
2023/12/30 01:16:06;;;;;;;3.83;3.43;;;;;;;7.64;78.34;96139.16;4973185;28;20847;-71
2023/12/30 01:18:32;;;;;;;4.23;3.17;;;;;;;7.69;77.86;96149.44;4992199;28;20186;-70
2023/12/30 01:20:57;;;;;;;4.20;3.80;;;;;;;7.62;77.75;96140.97;4990014;28;20186;-70
2023/12/30 01:23:23;;;;;;;4.23;3.47;;;;;;;7.71;77.83;96145.84;5005346;28;20670;-71
2023/12/30 01:25:48;;;;;;;3.80;3.50;;;;;;;7.63;77.43;96142.69;5025108;28;20189;-70
2023/12/30 01:28:14;;;;;;;4.60;3.60;;;;;;;7.60;78.26;96143.63;4985703;28;20181;-71
2023/12/30 01:30:40;;;;;;;3.73;3.43;;;;;;;7.72;77.28;96139.72;4971538;28;20209;-71
2023/12/30 01:33:05;;;;;;;5.73;2.77;;;;;;;7.76;77.84;96143.91;4970312;28;20185;-71
2023/12/30 01:35:31;;;;;;;4.20;3.70;;;;;;;7.72;76.97;96141.47;4981884;28;20528;-70
2023/12/30 01:37:57;;;;;;;4.30;3.10;;;;;;;7.75;77.55;96150.06;5018297;28;20835;-70
2023/12/30 01:40:24;;;;;;;3.90;3.27;;;;;;;7.67;77.63;96162.53;5034487;28;20447;-71
2023/12/30 01:42:49;;;;;;;3.50;3.20;;;;;;;7.66;77.87;96154.78;4967763;28;20307;-71
2023/12/30 01:45:15;;;;;;;7.00;3.70;;;;;;;7.73;77.58;96154.50;4979864;28;20539;-70
2023/12/30 01:47:40;;;;;;;4.67;3.40;;;;;;;7.55;77.90;96160.38;5002223;28;20552;-72
2023/12/30 01:50:07;;;;;;;3.87;3.17;;;;;;;7.57;77.77;96159.41;5022914;28;20271;-70
2023/12/30 01:52:34;;;;;;;3.37;3.07;;;;;;;7.59;77.10;96160.22;5013440;28;20194;-71
2023/12/30 01:55:00;;;;;;;4.30;3.40;;;;;;;7.64;77.33;96157.44;4952862;28;20505;-71
2023/12/30 01:57:25;;;;;;;3.87;3.47;;;;;;;7.49;77.77;96164.06;4961031;28;20527;-71
2023/12/30 01:59:52;;;;;;;3.00;2.80;;;;;;;7.55;77.44;96168.22;4977761;28;20190;-71
2023/12/30 02:02:17;;;;;;;3.03;2.73;;;;;;;7.50;77.76;96170.13;4983690;28;20234;-71
2023/12/30 02:04:43;;;;;;;5.50;2.80;;;;;;;7.53;77.16;96168.25;4996880;28;20550;-71
2023/12/30 02:07:08;;;;;;;4.20;3.40;;;;;;;7.52;77.71;96178.78;4986648;28;20186;-70
2023/12/30 02:09:34;;;;;;;3.60;3.30;;;;;;;7.45;77.71;96185.97;5034640;28;20193;-71
2023/12/30 02:11:59;;;;;;;6.03;3.70;;;;;;;7.41;77.17;96194.78;4968544;28;20943;-72
2023/12/30 02:14:26;;;;;;;4.33;3.03;;;;;;;7.35;77.96;96190.66;4978330;28;20244;-71
2023/12/30 02:16:51;;;;;;;4.10;2.90;;;;;;;7.39;78.05;96191.38;4996315;28;20583;-71
2023/12/30 02:19:16;;;;;;;3.00;2.70;;;;;;;7.42;77.62;96184.31;5010087;28;20444;-71
2023/12/30 02:21:42;;;;;;;6.00;3.67;;;;;;;7.49;77.17;96186.69;5035558;28;20189;-71
2023/12/30 02:24:07;;;;;;;4.47;3.53;;;;;;;7.45;77.27;96188.56;4978003;28;20217;-72
2023/12/30 02:26:33;;;;;;;7.33;3.67;;;;;;;7.39;76.82;96184.44;4966723;28;20192;-69
2023/12/30 02:28:58;;;;;;;6.83;2.80;;;;;;;7.51;77.34;96190.09;4970719;28;21138;-71
2023/12/30 02:31:23;;;;;;;4.47;3.17;;;;;;;7.42;76.98;96188.69;4992813;28;20181;-71
2023/12/30 02:33:49;;;;;;;3.27;2.93;;;;;;;7.39;76.45;96183.53;5003056;28;20288;-71
2023/12/30 02:36:14;;;;;;;2.80;2.60;;;;;;;7.45;76.88;96187.72;4993084;28;20872;-71
2023/12/30 02:38:39;;;;;;;4.00;2.60;;;;;;;7.49;76.03;96186.69;4999403;28;20312;-71
2023/12/30 02:41:05;;;;;;;5.10;3.13;;;;;;;7.37;76.25;96193.19;4963271;28;20236;-70
2023/12/30 02:43:35;;;;;;;4.97;3.83;;;;;;;7.53;75.63;96190.91;4983831;28;20732;-69
2023/12/30 02:46:00;;;;;;;3.50;3.20;;;;;;;7.52;76.04;96194.44;4985861;28;20232;-72
2023/12/30 02:48:26;;;;;;;3.10;2.80;;;;;;;7.50;75.66;96194.47;5009986;28;20473;-72
2023/12/30 02:50:51;;;;;;;3.20;2.87;;;;;;;7.36;76.07;96197.56;5025241;28;20185;-71
2023/12/30 02:53:16;;;;;;;3.10;2.63;;;;;;;7.48;75.09;96192.81;4976447;28;20205;-70
2023/12/30 02:55:42;;;;;;;4.40;3.13;;;;;;;7.41;74.78;96198.25;4967199;28;20188;-71
2023/12/30 02:58:07;;;;;;;3.60;2.43;;;;;;;7.42;74.80;96207.81;4979324;28;20640;-71
2023/12/30 03:00:32;;;;;;;3.00;2.47;;;;;;;7.39;75.05;96207.91;4995375;28;20198;-70
2023/12/30 03:02:58;;;;;;;4.70;2.60;;;;;;;7.32;75.07;96213.38;4983023;28;20216;-71
2023/12/30 03:05:23;;;;;;;2.70;2.50;;;;;;;7.43;74.29;96206.03;5026522;28;20208;-70
2023/12/30 03:07:48;;;;;;;5.13;2.97;;;;;;;7.46;73.80;96205.09;5039687;28;20189;-71
2023/12/30 03:10:14;;;;;;;3.57;2.83;;;;;;;7.43;73.39;96209.50;4970089;28;20214;-71
2023/12/30 03:12:39;;;;;;;2.93;2.63;;;;;;;7.41;73.82;96213.91;4982598;28;20185;-71
2023/12/30 03:15:05;;;;;;;2.90;2.23;;;;;;;7.50;73.06;96209.31;4999926;28;20206;-72
2023/12/30 03:17:31;;;;;;;3.80;2.93;;;;;;;7.39;73.22;96220.09;5020121;28;20188;-69
2023/12/30 03:19:56;;;;;;;4.63;2.33;;;;;;;7.37;73.05;96222.78;5027253;28;20193;-70
2023/12/30 03:22:21;;;;;;;3.07;2.33;;;;;;;7.37;72.57;96228.00;4984059;28;20949;-70
2023/12/30 03:24:47;;;;;;;3.37;2.13;;;;;;;7.38;72.89;96226.22;4985085;28;20209;-71
2023/12/30 03:27:12;;;;;;;2.57;1.97;;;;;;;7.41;72.11;96224.34;4996209;28;20269;-71
2023/12/30 03:29:37;;;;;;;2.40;2.20;;;;;;;7.44;71.54;96223.44;5003159;28;20185;-70
2023/12/30 03:32:03;;;;;;;3.97;2.00;;;;;;;7.40;71.56;96227.88;4991504;28;20190;-71
2023/12/30 03:34:28;;;;;;;3.00;2.17;;;;;;;7.38;71.54;96232.31;5001441;28;20752;-70
2023/12/30 03:36:54;;;;;;;3.40;2.33;;;;;;;7.47;71.78;96230.31;4987697;28;20703;-70
2023/12/30 03:39:19;;;;;;;2.40;1.97;;;;;;;7.35;71.16;96229.81;4987553;28;20185;-70
2023/12/30 03:41:44;;;;;;;3.40;2.30;;;;;;;7.50;70.44;96228.41;5001142;28;20181;-71
2023/12/30 03:44:10;;;;;;;3.90;2.30;;;;;;;7.57;70.66;96221.22;4993653;28;20217;-70
2023/12/30 03:46:35;;;;;;;3.07;1.93;;;;;;;7.54;70.14;96223.97;5010694;28;20186;-71
2023/12/30 03:49:01;;;;;;;2.50;2.30;;;;;;;7.66;69.20;96227.91;4970078;28;20177;-71
2023/12/30 03:51:26;;;;;;;3.17;2.03;;;;;;;7.54;69.96;96234.41;4978830;28;20189;-71
2023/12/30 03:53:51;;;;;;;3.30;2.20;;;;;;;7.53;70.12;96238.75;4977175;28;20201;-71
2023/12/30 03:56:17;;;;;;;3.10;1.70;;;;;;;7.63;69.12;96241.91;4964026;28;20674;-70
2023/12/30 03:58:42;;;;;;;1.90;1.67;;;;;;;7.60;69.50;96232.41;4962922;28;20640;-71
2023/12/30 04:01:07;;;;;;;3.90;1.90;;;;;;;7.58;69.71;96226.41;4973367;28;20185;-71
2023/12/30 04:03:33;;;;;;;2.37;1.90;;;;;;;7.51;69.63;96224.91;4982884;28;20212;-70
2023/12/30 04:05:58;;;;;;;3.10;1.43;;;;;;;7.53;68.92;96232.69;5031945;28;20186;-71
2023/12/30 04:08:24;;;;;;;2.80;2.03;;;;;;;7.50;69.69;96228.41;5021680;28;20186;-71
2023/12/30 04:10:49;;;;;;;2.40;1.80;;;;;;;7.60;68.57;96228.94;5001523;28;20239;-71
2023/12/30 04:13:15;;;;;;;1.73;1.40;;;;;;;7.52;69.03;96226.63;4967111;28;20199;-71
2023/12/30 04:15:40;;;;;;;3.93;1.80;;;;;;;7.44;68.46;96231.25;4995970;28;20189;-71
2023/12/30 04:18:05;;;;;;;2.20;1.57;;;;;;;7.31;69.52;96230.81;5012442;28;20265;-72
2023/12/30 04:20:31;;;;;;;2.53;1.70;;;;;;;7.34;69.71;96228.09;4965301;28;20190;-70
2023/12/30 04:22:56;;;;;;;1.50;1.37;;;;;;;7.36;68.85;96228.03;4978492;28;20312;-71
2023/12/30 04:25:22;;;;;;;2.10;1.90;;;;;;;7.46;68.98;96229.44;4958043;28;20194;-70
2023/12/30 04:27:47;;;;;;;3.27;1.90;;;;;;;7.33;69.02;96231.63;4963817;28;20189;-72
2023/12/30 04:30:13;;;;;;;2.03;1.80;;;;;;;7.38;69.23;96237.53;4962831;28;20650;-70
2023/12/30 04:32:38;;;;;;;1.67;1.57;;;;;;;7.40;68.65;96237.47;4970896;28;20602;-71
2023/12/30 04:35:04;;;;;;;3.70;1.67;;;;;;;7.38;69.01;96236.69;4967142;28;20814;-71
2023/12/30 04:37:29;;;;;;;3.57;1.83;;;;;;;7.41;69.47;96239.19;4966850;28;20200;-71
2023/12/30 04:39:55;;;;;;;11.43;2.90;;;;;;;7.28;69.52;96254.41;4965279;28;20188;-72
2023/12/30 04:42:20;;;;;;;1.53;1.40;;;;;;;7.29;68.99;96247.44;4961878;28;20201;-70
2023/12/30 04:44:46;;;;;;;6.30;2.40;;;;;;;7.29;69.40;96250.03;4964752;28;20208;-71
2023/12/30 04:47:11;;;;;;;3.73;1.87;;;;;;;7.34;69.03;96250.72;4960567;28;20675;-71
2023/12/30 04:49:36;;;;;;;5.20;1.80;;;;;;;7.29;68.92;96263.94;4965500;28;20669;-71
2023/12/30 04:52:02;;;;;;;4.87;3.37;;;;;;;7.31;69.28;96251.69;4965715;28;20238;-71
2023/12/30 04:54:30;;;;;;;4.30;1.50;;;;;;;7.33;69.03;96262.09;4965572;28;20591;-70
2023/12/30 04:56:55;;;;;;;1.60;1.50;;;;;;;7.25;69.49;96253.66;4960897;28;20186;-70
2023/12/30 04:59:21;;;;;;;2.33;1.57;;;;;;;7.28;69.36;96243.97;4961336;28;20431;-70
2023/12/30 05:01:46;;;;;;;3.53;1.60;;;;;;;7.40;68.69;96248.78;4965547;28;20185;-70
2023/12/30 05:04:11;;;;;;;2.13;1.80;;;;;;;7.42;68.87;96252.19;4965312;28;20217;-69
2023/12/30 05:06:37;;;;;;;2.20;1.50;;;;;;;7.36;68.45;96252.38;4965248;28;20194;-71
2023/12/30 05:09:03;;;;;;;2.17;1.53;;;;;;;7.34;68.38;96253.34;4965232;28;20186;-70
2023/12/30 05:11:29;;;;;;;2.13;1.80;;;;;;;7.28;69.15;96258.78;4965289;28;20209;-70
2023/12/30 05:13:54;;;;;;;4.47;2.70;;;;;;;7.20;68.96;96257.28;4965265;28;20259;-71
2023/12/30 05:16:19;;;;;;;2.77;1.60;;;;;;;7.11;69.83;96269.75;4967600;28;20186;-71
2023/12/30 05:18:45;;;;;;;2.67;1.73;;;;;;;7.09;69.85;96274.19;4967610;28;20239;-70
2023/12/30 05:21:14;;;;;;;2.87;1.50;;;;;;;7.08;69.57;96275.06;4968834;28;20193;-70
2023/12/30 05:23:40;;;;;;;2.13;1.90;;;;;;;7.15;70.22;96284.41;4967993;28;20205;-69
2023/12/30 05:26:06;;;;;;;3.63;2.23;;;;;;;7.16;69.34;96283.53;4972290;28;20460;-72
2023/12/30 05:28:31;;;;;;;2.30;1.80;;;;;;;7.14;69.62;96287.94;4978521;28;20815;-71
2023/12/30 05:30:57;;;;;;;5.83;2.20;;;;;;;7.25;69.08;96288.41;4996074;28;20227;-69
2023/12/30 05:33:22;;;;;;;3.40;2.07;;;;;;;7.26;69.16;96291.91;5018429;28;20688;-69
2023/12/30 05:35:47;;;;;;;2.63;2.17;;;;;;;7.34;69.14;96290.72;5046368;28;20433;-69
2023/12/30 05:38:13;;;;;;;2.33;1.80;;;;;;;7.31;68.97;96290.00;4989647;28;20198;-71
2023/12/30 05:40:39;;;;;;;2.23;1.87;;;;;;;7.28;69.18;96283.13;4982190;28;20192;-70
2023/12/30 05:43:05;;;;;;;3.70;2.30;;;;;;;7.27;70.02;96289.22;4998885;28;20214;-71
2023/12/30 05:45:31;;;;;;;4.70;2.10;;;;;;;7.31;69.33;96276.94;5001780;28;20532;-71
2023/12/30 05:47:57;;;;;;;3.70;1.97;;;;;;;7.42;68.89;96269.63;5027468;28;20840;-70
2023/12/30 05:50:22;;;;;;;2.43;1.60;;;;;;;7.68;68.44;96271.34;5020437;28;20437;-70
2023/12/30 05:52:48;;;;;;;2.43;1.50;;;;;;;7.56;68.18;96269.13;4975259;28;20270;-70
2023/12/30 05:55:14;;;;;;;3.60;1.67;;;;;;;7.43;69.31;96273.91;4963146;28;20206;-70
2023/12/30 05:57:39;;;;;;;2.60;1.40;;;;;;;7.34;69.17;96275.06;4977973;28;20498;-71
2023/12/30 06:00:07;;;;;;;6.30;2.50;;;;;;;7.40;69.28;96274.88;4981262;28;20277;-70
2023/12/30 06:02:32;;;;;;;1.77;1.40;;;;;;;7.36;69.40;96277.63;5024737;28;20914;-69
2023/12/30 06:04:57;;;;;;;7.53;1.40;;;;;;;7.44;69.55;96265.19;4993273;28;20465;-71
2023/12/30 06:07:23;;;;;;;6.00;2.10;;;;;;;7.57;68.88;96265.63;4957763;28;20582;-70
2023/12/30 06:09:48;;;;;;;5.80;1.53;;;;;;;7.58;69.16;96269.94;4983015;28;20186;-71
2023/12/30 06:12:13;;;;;;;1.57;1.30;;;;;;;7.63;68.80;96275.88;4995059;28;20186;-69
2023/12/30 06:14:40;;;;;;;1.80;1.70;;;;;;;7.64;69.43;96267.97;4990446;28;20292;-71
2023/12/30 06:17:05;;;;;;;3.30;1.90;;;;;;;7.60;68.87;96271.59;5040007;28;20185;-71
2023/12/30 06:19:33;;;;;;;4.63;1.60;;;;;;;7.75;69.03;96270.22;4972817;28;20600;-70
2023/12/30 06:21:58;;;;;;;3.47;1.57;;;;;;;7.63;69.28;96274.09;4968039;28;20210;-70
2023/12/30 06:24:26;;;;;;;2.90;1.60;;;;;;;7.61;69.17;96262.84;4987635;28;20493;-71
2023/12/30 06:26:52;;;;;;;1.87;1.40;;;;;;;7.62;69.00;96274.16;5017660;28;20719;-70
2023/12/30 06:29:19;;;;;;;5.60;1.53;;;;;;;7.57;70.02;96270.84;4993482;28;20762;-71
2023/12/30 06:31:44;;;;;;;3.40;1.70;;;;;;;7.58;70.22;96265.59;5007328;28;20436;-68
2023/12/30 06:34:10;;;;;;;2.67;2.07;;;;;;;7.58;69.48;96267.31;4992311;28;20488;-69
2023/12/30 06:36:36;;;;;;;2.67;1.87;;;;;;;7.46;70.23;96267.75;4967996;28;20224;-70
2023/12/30 06:39:02;;;;;;;6.63;2.13;;;;;;;7.38;70.83;96278.44;4977075;28;20802;-70
2023/12/30 06:41:27;;;;;;;11.20;2.00;;;;;;;7.49;70.02;96281.56;5003629;28;20220;-71
2023/12/30 06:43:52;;;;;;;2.37;2.10;;;;;;;7.43;71.09;96280.00;5035374;28;20348;-70
2023/12/30 06:46:20;;;;;;;4.10;2.33;;;;;;;7.38;71.28;96283.66;4979621;28;20204;-70
2023/12/30 06:48:45;;;;;;;2.03;1.80;;;;;;;7.45;70.70;96284.31;4964985;28;20182;-69
2023/12/30 06:51:11;;;;;;;1.80;1.67;;;;;;;7.47;70.42;96283.38;4979275;28;20448;-70
2023/12/30 06:53:37;;;;;;;2.00;1.37;;;;;;;7.47;70.64;96295.56;4998574;28;20239;-70
2023/12/30 06:56:03;;;;;;;5.93;2.50;;;;;;;7.46;70.89;96286.03;4998760;28;20184;-71
2023/12/30 06:58:29;;;;;;;2.57;1.97;;;;;;;7.47;70.76;96279.91;4959267;28;20446;-70
2023/12/30 07:00:55;;;;;;;5.47;2.17;;;;;;;7.50;70.68;96291.09;4996727;28;20537;-71
2023/12/30 07:03:21;;;;;;;1.77;1.40;;;;;;;7.46;71.54;96288.63;4965151;28;20847;-71
2023/12/30 07:05:46;;;;;;;3.80;2.30;;;;;;;7.56;71.02;96293.50;4988630;28;20437;-70
2023/12/30 07:08:12;;;;;;;4.27;1.73;;;;;;;7.62;71.50;96303.72;4997789;28;20185;-71
2023/12/30 07:10:38;;;;;;;3.23;1.90;;;;;;;7.46;72.01;96304.28;5011068;28;20723;-70
2023/12/30 07:13:03;;;;;;;4.00;2.03;;;;;;;7.52;71.80;96304.09;4957489;28;20477;-70
2023/12/30 07:15:28;;;;;;;3.80;2.30;;;;;;;7.52;72.04;96304.94;4963390;28;20202;-70
2023/12/30 07:17:54;;;;;;;2.73;2.10;;;;;;;7.55;72.32;96311.81;5039764;28;20269;-71
2023/12/30 07:20:21;;;;;;;3.07;2.33;;;;;;;7.66;71.40;96317.56;4969840;28;20569;-71
2023/12/30 07:22:46;;;;;;;6.10;2.57;;;;;;;7.63;71.45;96318.50;4983857;28;20202;-71
2023/12/30 07:25:12;;;;;;;2.43;2.20;;;;;;;7.77;71.38;96312.81;4976651;28;21049;-70
2023/12/30 07:27:37;;;;;;;3.07;2.00;;;;;;;7.94;71.37;96311.38;4985382;28;20190;-69
2023/12/30 07:30:04;;;;;;;11.53;2.43;;;;;;;8.26;70.21;96303.22;4991512;28;20217;-70
2023/12/30 07:32:30;;;;;;;3.90;2.40;;;;;;;8.88;68.22;96311.44;5001342;28;20173;-71
2023/12/30 07:34:55;;;;;;;4.50;2.97;;;;;;;8.94;67.39;96320.81;4965667;28;20468;-70
2023/12/30 07:37:21;;;;;;;3.93;2.60;;;;;;;8.74;68.11;96314.59;4970748;28;20189;-71
2023/12/30 07:39:46;;;;;;;5.10;2.57;;;;;;;8.57;68.74;96316.97;4964881;28;20222;-71
2023/12/30 07:42:12;;;;;;;5.37;2.97;;;;;;;8.35;69.35;96314.28;4964779;28;20253;-71
2023/12/30 07:44:38;;;;;;;2.83;2.10;;;;;;;8.38;69.43;96315.00;4962722;28;20205;-69
2023/12/30 07:47:06;;;;;;;3.00;2.57;;;;;;;8.34;70.05;96321.28;4963950;28;20197;-70
2023/12/30 07:49:32;;;;;;;7.53;2.70;;;;;;;8.30;69.58;96318.81;4962683;28;20791;-70
2023/12/30 07:52:00;;;;;;;5.87;2.80;;;;;;;8.19;70.66;96329.66;4964445;28;20495;-70
2023/12/30 07:54:25;;;;;;;15.17;3.47;;;;;;;8.21;70.79;96331.31;4963026;28;21004;-70
2023/12/30 07:56:50;;;;;;;17.93;4.40;;;;;;;8.33;70.75;96331.78;4963777;28;20510;-71
2023/12/30 07:59:16;;;;;;;6.47;2.90;;;;;;;8.39;69.84;96339.41;4963142;28;20268;-70
2023/12/30 08:01:43;;;;;;;5.20;3.10;;;;;;;8.47;69.81;96343.47;4952998;28;20565;-70
2023/12/30 08:04:09;;;;;;;4.83;4.10;;;;;;;8.47;69.34;96332.16;4978083;28;20300;-71
2023/12/30 08:06:34;;;;;;;4.77;3.37;;;;;;;8.79;68.91;96337.97;4962364;28;20436;-70
2023/12/30 08:09:00;;;;;;;3.57;3.00;;;;;;;9.07;67.76;96341.22;4984317;28;20269;-71
2023/12/30 08:11:26;;;;;;;5.27;3.63;;;;;;;11.21;61.25;96334.69;4989757;28;20190;-70
2023/12/30 08:13:51;;;;;;;2.80;2.50;;;;;;;12.27;57.18;96308.44;4963034;28;20981;-71
2023/12/30 08:16:16;;;;;;;3.30;2.80;;;;;;;13.62;52.82;96305.47;4962120;28;20185;-70
2023/12/30 08:18:42;;;;;;;8.57;3.50;;;;;;;14.08;51.46;96314.22;4972766;28;20875;-70
2023/12/30 08:21:07;;;;;;;5.83;2.97;;;;;;;14.60;49.09;96305.81;4981444;28;20190;-70
2023/12/30 08:23:32;;;;;;;4.17;3.30;;;;;;;15.10;48.66;96308.03;4962816;28;20213;-70
2023/12/30 08:25:58;;;;;;;4.30;3.10;;;;;;;14.37;49.83;96304.53;4962024;28;20547;-69
2023/12/30 08:28:23;;;;;;;4.87;3.43;;;;;;;12.50;54.47;96315.13;4956554;28;20193;-71
2023/12/30 08:30:50;;;;;;;5.63;3.10;;;;;;;11.69;57.22;96327.97;4963664;28;20654;-70
2023/12/30 08:33:15;;;;;;;6.63;3.23;;;;;;;11.18;59.70;96333.06;4958230;28;20227;-71
2023/12/30 08:35:41;;;;;;;3.70;3.20;;;;;;;10.65;61.62;96325.03;4961426;28;20433;-71
2023/12/30 08:38:06;;;;;;;9.40;4.90;;;;;;;10.48;62.87;96325.78;4963768;28;20328;-71
2023/12/30 08:40:31;;;;;;;6.70;3.23;;;;;;;10.81;62.02;96326.03;4959755;28;20185;-71
2023/12/30 08:42:57;;;;;;;10.87;4.33;;;;;;;11.83;58.77;96332.53;4956613;28;20922;-70
2023/12/30 08:45:22;;;;;;;3.83;3.43;;;;;;;13.87;52.79;96324.22;4955679;28;20247;-70
2023/12/30 08:47:48;;;;;;;4.47;3.80;;;;;;;15.24;48.89;96332.66;4953864;28;20193;-69
2023/12/30 08:50:13;;;;;;;3.43;3.13;;;;;;;16.28;46.24;96319.69;4947172;28;20185;-70
2023/12/30 08:52:39;;;;;;;7.60;4.17;;;;;;;17.12;43.52;96320.91;4957616;28;20179;-71
2023/12/30 08:55:10;;;;;;;13.60;5.10;;;;;;;17.39;42.99;96319.91;4956378;28;20332;-71
2023/12/30 08:57:36;;;;;;;6.07;4.20;;;;;;;17.91;41.95;96326.72;4957232;28;20633;-69
2023/12/30 09:00:08;;;;;;;7.17;3.87;;;;;;;18.26;40.67;96317.06;4996222;28;20820;-70
2023/12/30 09:02:35;;;;;;;5.90;4.00;;;;;;;18.62;39.78;96324.03;4959344;28;20448;-70
2023/12/30 09:05:00;;;;;;;3.73;3.40;;;;;;;18.98;39.13;96322.16;4957356;28;20465;-70
2023/12/30 09:07:26;;;;;;;3.33;2.93;;;;;;;19.46;38.14;96329.84;4965578;28;20467;-70
2023/12/30 09:09:51;;;;;;;5.70;3.60;;;;;;;19.44;38.17;96337.09;4967095;28;20181;-70
2023/12/30 09:12:16;;;;;;;3.73;3.40;;;;;;;19.55;37.93;96323.78;4960482;28;20220;-70
2023/12/30 09:14:42;;;;;;;3.27;2.97;;;;;;;19.41;37.58;96324.03;4963678;28;20213;-70
2023/12/30 09:17:07;;;;;;;4.97;3.30;;;;;;;20.03;36.84;96318.09;4956955;28;20700;-70
2023/12/30 09:19:33;;;;;;;3.60;3.30;;;;;;;20.05;36.74;96321.44;4968495;28;20205;-69
2023/12/30 09:21:58;;;;;;;5.37;3.53;;;;;;;19.79;37.02;96320.94;4968248;28;20226;-70
2023/12/30 09:24:24;;;;;;;4.63;3.77;;;;;;;20.00;36.71;96318.31;5010381;28;20220;-71
2023/12/30 09:26:49;;;;;;;5.50;3.43;;;;;;;20.11;36.42;96317.44;4963222;28;20235;-71
2023/12/30 09:29:14;;;;;;;3.80;3.50;;;;;;;19.59;37.36;96324.38;4966827;28;20189;-70
2023/12/30 09:31:40;;;;;;;4.50;4.10;;;;;;;19.94;36.52;96329.50;4967131;28;20184;-70
2023/12/30 09:34:05;;;;;;;3.97;3.30;;;;;;;19.59;37.22;96330.53;4961195;28;20275;-70
2023/12/30 09:36:31;;;;;;;4.60;3.00;;;;;;;19.43;37.38;96330.09;4968841;28;20177;-71
2023/12/30 09:38:56;;;;;;;4.13;3.57;;;;;;;19.22;37.64;96335.31;4959814;28;20326;-71
2023/12/30 09:41:25;;;;;;;4.10;3.80;;;;;;;18.23;39.55;96328.75;4962593;28;20941;-71
2023/12/30 09:43:51;;;;;;;5.57;3.77;;;;;;;17.64;40.87;96331.38;4966973;28;20687;-71
2023/12/30 09:46:17;;;;;;;3.70;3.30;;;;;;;17.20;42.19;96343.41;4957875;28;20480;-70
2023/12/30 09:48:46;;;;;;;6.00;3.90;;;;;;;16.96;43.16;96346.84;4960588;28;20494;-69
2023/12/30 09:51:11;;;;;;;5.87;3.70;;;;;;;16.67;43.92;96344.38;4971830;28;20444;-68
2023/12/30 09:53:36;;;;;;;3.70;3.30;;;;;;;16.58;44.13;96350.28;4960449;28;20473;-69
2023/12/30 09:56:03;;;;;;;6.20;4.30;;;;;;;16.15;45.31;96337.34;4958960;28;20243;-70
2023/12/30 09:58:30;;;;;;;5.47;3.97;;;;;;;15.80;46.18;96348.47;4964667;28;20245;-71
2023/12/30 10:00:55;;;;;;;4.03;3.63;;;;;;;15.91;45.85;96341.63;4965628;28;20501;-72
2023/12/30 10:03:23;;;;;;;4.33;3.93;;;;;;;15.41;46.96;96354.50;4965920;28;20468;-70
2023/12/30 10:05:51;;;;;;;4.70;4.10;;;;;;;15.39;47.25;96349.31;4979876;28;20197;-70
2023/12/30 10:08:17;;;;;;;4.57;4.13;;;;;;;15.38;47.72;96344.16;4966108;28;20472;-70
2023/12/30 10:10:49;;;;;;;4.47;3.40;;;;;;;15.23;48.23;96338.03;4974637;28;20477;-71
2023/12/30 10:13:17;;;;;;;5.87;5.07;;;;;;;15.18;48.13;96338.31;5053418;28;20202;-70
2023/12/30 10:15:43;;;;;;;8.47;4.00;;;;;;;15.15;48.46;96335.88;4979274;28;20437;-71
2023/12/30 10:18:09;;;;;;;4.83;3.73;;;;;;;14.83;48.97;96329.94;4972871;28;20441;-73
2023/12/30 10:20:40;;;;;;;7.10;3.80;;;;;;;14.56;49.83;96332.50;4967554;28;20603;-73
2023/12/30 10:23:07;;;;;;;5.27;3.60;;;;;;;14.56;49.73;96322.78;5032559;28;20178;-71
2023/12/30 10:25:32;;;;;;;6.00;4.20;;;;;;;14.43;50.44;96326.22;4993947;28;20424;-71
2023/12/30 10:27:57;;;;;;;4.70;3.90;;;;;;;14.51;50.10;96322.19;4965611;28;20781;-72
2023/12/30 10:30:23;;;;;;;8.30;4.10;;;;;;;14.57;50.10;96315.69;4971872;28;20213;-70
2023/12/30 10:32:48;;;;;;;8.13;3.67;;;;;;;14.72;49.39;96303.38;4999822;28;20201;-71
2023/12/30 10:35:14;;;;;;;9.23;3.83;;;;;;;14.51;50.09;96306.34;5020101;28;20584;-74
2023/12/30 10:37:42;;;;;;;7.30;3.50;;;;;;;14.57;49.48;96299.84;4958633;28;20194;-72
2023/12/30 10:40:09;;;;;;;6.83;3.57;;;;;;;14.67;49.70;96297.50;4958895;28;20185;-72
2023/12/30 10:42:35;;;;;;;4.53;3.80;;;;;;;14.80;49.36;96301.94;4959809;28;20801;-72
2023/12/30 10:45:01;;;;;;;11.73;4.17;;;;;;;14.57;49.92;96302.50;4958891;28;20461;-72
2023/12/30 10:47:27;;;;;;;6.73;3.07;;;;;;;14.79;49.72;96308.16;4965606;28;20457;-69
2023/12/30 10:49:58;;;;;;;3.13;2.83;;;;;;;14.89;49.67;96299.66;5027795;28;20301;-71
2023/12/30 10:52:26;;;;;;;6.17;3.73;;;;;;;15.07;49.04;96301.16;4962720;28;20466;-71
2023/12/30 10:55:05;;;;;;;3.77;3.37;;;;;;;15.13;48.40;96302.56;4969341;28;22098;-72
2023/12/30 10:57:36;;;;;;;5.97;3.47;;;;;;;15.16;48.77;96297.06;4979416;28;20935;-72
2023/12/30 11:00:08;;;;;;;3.53;2.60;;;;;;;15.27;48.56;96294.59;4965491;28;20551;-72
2023/12/30 11:02:36;;;;;;;13.37;3.70;;;;;;;15.42;48.31;96295.38;4965480;28;20437;-73
2023/12/30 11:05:05;;;;;;;10.67;3.50;;;;;;;15.24;48.28;96293.00;4989971;28;20448;-70
2023/12/30 11:07:31;;;;;;;12.50;3.47;;;;;;;15.24;48.45;96290.34;4984483;28;20556;-71
2023/12/30 11:09:57;;;;;;;8.17;3.33;;;;;;;15.29;48.20;96286.56;4961359;28;20441;-70
2023/12/30 11:12:29;;;;;;;7.30;3.03;;;;;;;15.18;48.50;96289.88;4979391;28;20538;-71
2023/12/30 11:14:55;;;;;;;5.13;3.00;;;;;;;15.07;48.39;96295.88;5028716;28;20206;-73
2023/12/30 11:17:34;;;;;;;4.03;2.90;;;;;;;14.97;48.92;96295.56;4972139;28;20445;-74
2023/12/30 11:20:27;;;;;;;4.40;2.57;;;;;;;14.87;48.89;96291.00;4979273;28;20908;-72
2023/12/30 11:22:54;;;;;;;3.53;3.07;;;;;;;15.24;48.53;96297.44;5027148;28;20396;-71
2023/12/30 11:25:21;;;;;;;3.67;2.70;;;;;;;15.14;48.16;96299.81;5054635;28;20569;-71
2023/12/30 11:27:53;;;;;;;2.80;2.37;;;;;;;15.35;47.90;96289.63;5001072;28;20444;-71
2023/12/30 11:30:28;;;;;;;15.43;3.43;;;;;;;14.65;49.67;96294.13;4977876;28;20433;-71
2023/12/30 11:32:55;;;;;;;4.00;2.80;;;;;;;14.51;50.14;96289.66;4959302;28;20467;-72